Time;durP1;ratioP1;P1;durP2;ratioP2;P2;SDS_P1;SDS_P2;PMS_P1;PMS_P2;Temp;Humidity;BMP_temperature;BMP_pressure;BME280_temperature;BME280_humidity;BME280_pressure;Samples;Min_cycle;Max_cycle;Signal;HPM_P1;HPM_P2
2023/05/28 00:01:26;;;;;;;16.30;5.70;;;12.70;99.90;;;;;;5091979;28;20054;-65
2023/05/28 00:03:52;;;;;;;12.07;5.25;;;12.70;99.90;;;;;;5091847;28;20062;-65
2023/05/28 00:06:18;;;;;;;13.82;5.80;;;12.70;99.90;;;;;;5091112;28;20048;-65
2023/05/28 00:08:45;;;;;;;16.02;5.57;;;12.60;99.90;;;;;;5091453;28;20043;-63
2023/05/28 00:11:12;;;;;;;15.07;6.32;;;12.60;99.90;;;;;;5058367;28;20083;-63
2023/05/28 00:13:38;;;;;;;16.35;5.93;;;12.60;99.90;;;;;;5091745;28;20338;-63
2023/05/28 00:16:04;;;;;;;20.02;6.55;;;12.50;99.90;;;;;;5091338;28;20036;-66
2023/05/28 00:18:31;;;;;;;12.90;5.55;;;12.50;99.90;;;;;;5091594;28;20130;-63
2023/05/28 00:20:57;;;;;;;15.40;6.00;;;12.40;99.90;;;;;;5074398;28;20101;-64
2023/05/28 00:23:23;;;;;;;15.68;6.50;;;12.40;99.90;;;;;;5091748;28;20078;-64
2023/05/28 00:25:50;;;;;;;16.00;6.25;;;12.30;99.90;;;;;;5091224;28;20105;-62
2023/05/28 00:28:16;;;;;;;16.13;6.82;;;12.30;99.90;;;;;;5090897;28;20053;-63
2023/05/28 00:30:42;;;;;;;13.85;6.60;;;12.20;99.90;;;;;;5092293;28;20048;-62
2023/05/28 00:33:08;;;;;;;15.63;6.57;;;12.10;99.90;;;;;;5092686;28;20101;-65
2023/05/28 00:35:35;;;;;;;17.65;7.32;;;12.10;99.90;;;;;;5090549;28;20051;-67
2023/05/28 00:38:01;;;;;;;15.45;6.75;;;12.10;99.90;;;;;;5091466;28;20055;-64
2023/05/28 00:40:27;;;;;;;19.10;7.63;;;12.00;99.90;;;;;;5091291;28;20056;-63
2023/05/28 00:42:53;;;;;;;16.58;7.07;;;12.00;99.90;;;;;;5091454;28;20060;-64
2023/05/28 00:45:20;;;;;;;14.73;6.78;;;11.90;99.90;;;;;;5091080;28;20090;-64
2023/05/28 00:47:46;;;;;;;20.75;6.95;;;11.90;99.90;;;;;;5074241;28;20128;-63
2023/05/28 00:50:13;;;;;;;14.80;6.95;;;11.90;99.90;;;;;;5090906;28;20269;-65
2023/05/28 00:52:40;;;;;;;14.73;7.82;;;11.90;99.90;;;;;;5091366;28;20449;-64
2023/05/28 00:55:16;;;;;;;13.93;6.57;;;11.80;99.90;;;;;;5090719;28;20048;-63
2023/05/28 00:57:46;;;;;;;15.18;6.15;;;11.80;99.90;;;;;;5091087;28;20055;-64
2023/05/28 01:00:13;;;;;;;18.15;6.90;;;11.70;99.90;;;;;;5090855;28;20050;-64
2023/05/28 01:02:40;;;;;;;15.50;6.80;;;11.70;99.90;;;;;;5091106;28;20048;-64
2023/05/28 01:05:06;;;;;;;15.20;6.95;;;11.80;99.90;;;;;;5090132;28;20055;-64
2023/05/28 01:07:33;;;;;;;13.60;6.75;;;11.80;99.90;;;;;;5090570;28;20675;-64
2023/05/28 01:10:00;;;;;;;16.42;6.80;;;11.70;99.90;;;;;;5091051;28;20127;-64
2023/05/28 01:12:26;;;;;;;18.17;6.65;;;11.70;99.90;;;;;;5091682;28;20056;-63
2023/05/28 01:14:54;;;;;;;12.85;6.75;;;11.70;99.90;;;;;;5090719;28;20040;-62
2023/05/28 01:17:20;;;;;;;12.02;6.75;;;11.80;99.90;;;;;;5073162;28;20438;-62
2023/05/28 01:19:47;;;;;;;19.08;7.03;;;11.80;99.90;;;;;;5090386;28;20067;-65
2023/05/28 01:22:17;;;;;;;14.82;6.03;;;11.70;99.90;;;;;;5091144;28;20367;-64
2023/05/28 01:24:46;;;;;;;15.60;6.90;;;11.70;99.90;;;;;;5073847;28;20094;-64
2023/05/28 01:27:13;;;;;;;13.95;6.88;;;11.70;99.90;;;;;;5090109;28;20506;-64
2023/05/28 01:29:39;;;;;;;16.33;6.70;;;11.70;99.90;;;;;;5090121;28;20047;-63
2023/05/28 01:32:05;;;;;;;15.15;7.18;;;11.80;99.90;;;;;;5091286;28;20364;-66
2023/05/28 01:34:31;;;;;;;17.08;7.05;;;11.70;99.90;;;;;;5094587;28;20070;-63
2023/05/28 01:37:03;;;;;;;16.55;6.22;;;11.70;99.90;;;;;;5094042;28;20074;-65
2023/05/28 01:39:33;;;;;;;;;;;11.80;99.90;;;;;;5095264;28;20059;-63
2023/05/28 01:42:01;;;;;;;16.25;7.32;;;11.70;99.90;;;;;;5094699;28;19924;-66
2023/05/28 01:44:30;;;;;;;15.23;6.75;;;11.70;99.90;;;;;;5094571;28;20051;-63
2023/05/28 01:46:56;;;;;;;16.00;6.22;;;11.70;99.90;;;;;;5077093;28;20105;-63
2023/05/28 01:49:23;;;;;;;12.15;6.13;;;11.70;99.90;;;;;;5094080;28;20040;-64
2023/05/28 01:51:52;;;;;;;12.13;6.38;;;11.70;99.90;;;;;;5078033;28;20376;-64
2023/05/28 01:54:20;;;;;;;14.88;6.60;;;11.60;99.90;;;;;;5077963;28;20056;-62
2023/05/28 01:56:46;;;;;;;14.10;6.47;;;11.70;99.90;;;;;;5094066;28;20055;-63
2023/05/28 01:59:12;;;;;;;14.93;6.00;;;11.70;99.90;;;;;;5077746;28;20059;-65
2023/05/28 02:01:39;;;;;;;14.70;6.40;;;11.70;99.90;;;;;;5094534;28;20135;-64
2023/05/28 02:04:05;;;;;;;16.48;6.30;;;11.70;99.90;;;;;;5094374;28;20125;-64
2023/05/28 02:06:33;;;;;;;15.93;7.03;;;11.60;99.90;;;;;;5076698;28;20350;-63
2023/05/28 02:08:59;;;;;;;14.23;6.47;;;11.70;99.90;;;;;;5093856;28;20044;-66
2023/05/28 02:11:26;;;;;;;16.30;7.00;;;11.60;99.90;;;;;;5077986;28;20419;-63
2023/05/28 02:13:52;;;;;;;14.23;6.60;;;11.60;99.90;;;;;;5077836;28;20040;-62
2023/05/28 02:16:18;;;;;;;15.57;6.88;;;11.60;99.90;;;;;;5093455;28;20105;-62
2023/05/28 02:18:45;;;;;;;14.60;6.35;;;11.50;99.90;;;;;;5093493;28;20436;-64
2023/05/28 02:21:12;;;;;;;17.27;7.10;;;11.50;99.90;;;;;;5093716;28;20054;-63
2023/05/28 02:23:47;;;;;;;17.15;6.57;;;11.50;99.90;;;;;;5095009;28;20059;-63
2023/05/28 02:26:13;;;;;;;17.02;6.57;;;11.50;99.90;;;;;;5093250;28;20048;-65
2023/05/28 02:28:43;;;;;;;14.48;6.30;;;11.40;99.90;;;;;;5093197;28;20372;-62
2023/05/28 02:31:11;;;;;;;14.52;6.28;;;11.40;99.90;;;;;;5077091;28;20044;-63
2023/05/28 02:33:38;;;;;;;14.00;6.65;;;11.50;99.90;;;;;;5076869;28;20113;-63
2023/05/28 02:36:06;;;;;;;12.30;7.03;;;11.50;99.90;;;;;;5092968;28;20361;-66
2023/05/28 02:38:32;;;;;;;12.68;6.22;;;11.50;99.90;;;;;;5094070;28;20059;-64
2023/05/28 02:40:59;;;;;;;16.10;6.95;;;11.50;99.90;;;;;;5093479;28;20051;-64
2023/05/28 02:43:25;;;;;;;16.83;6.00;;;11.50;99.90;;;;;;5092430;28;20113;-64
2023/05/28 02:45:51;;;;;;;15.70;6.82;;;11.40;99.90;;;;;;5092560;28;20056;-63
2023/05/28 02:48:17;;;;;;;16.08;5.97;;;11.50;99.90;;;;;;5093879;28;20643;-62
2023/05/28 02:50:44;;;;;;;14.15;6.22;;;11.40;99.90;;;;;;5076562;28;20165;-64
2023/05/28 02:53:10;;;;;;;15.60;6.88;;;11.50;99.90;;;;;;5094224;28;20052;-63
2023/05/28 02:55:36;;;;;;;14.00;6.25;;;11.50;99.90;;;;;;5093620;28;20048;-64
2023/05/28 02:58:03;;;;;;;12.73;5.90;;;11.40;99.90;;;;;;5093186;28;20051;-63
2023/05/28 03:00:29;;;;;;;15.82;6.43;;;11.50;99.90;;;;;;5094190;28;20352;-67
2023/05/28 03:02:55;;;;;;;15.20;6.40;;;11.40;99.90;;;;;;5093249;28;20056;-65
2023/05/28 03:05:22;;;;;;;12.77;6.63;;;11.50;99.90;;;;;;5093576;28;20048;-63
2023/05/28 03:07:49;;;;;;;15.43;6.75;;;11.40;99.90;;;;;;5093042;28;20043;-65
2023/05/28 03:10:16;;;;;;;15.38;6.47;;;11.40;99.90;;;;;;5093014;28;20040;-64
2023/05/28 03:12:42;;;;;;;13.85;6.88;;;11.50;99.90;;;;;;5092916;28;20048;-63
2023/05/28 03:15:09;;;;;;;15.15;6.05;;;11.50;99.90;;;;;;5092465;28;20170;-63
2023/05/28 03:17:35;;;;;;;15.38;6.18;;;11.40;99.90;;;;;;5092242;28;20036;-64
2023/05/28 03:20:02;;;;;;;15.32;6.72;;;11.40;99.90;;;;;;5093124;28;20047;-64
2023/05/28 03:22:28;;;;;;;13.25;6.32;;;11.50;99.90;;;;;;5075865;28;20060;-63
2023/05/28 03:24:56;;;;;;;14.18;6.05;;;11.50;99.90;;;;;;5092326;28;20372;-63
2023/05/28 03:27:23;;;;;;;16.60;7.05;;;11.40;99.90;;;;;;5075309;28;20059;-64
2023/05/28 03:29:49;;;;;;;12.52;6.13;;;11.40;99.90;;;;;;5093031;28;20056;-65
2023/05/28 03:32:15;;;;;;;13.25;5.65;;;11.50;99.90;;;;;;5092268;28;20062;-63
2023/05/28 03:34:42;;;;;;;13.32;6.20;;;11.40;99.90;;;;;;5091998;28;20455;-65
2023/05/28 03:37:08;;;;;;;16.75;6.32;;;11.40;99.90;;;;;;5092230;28;20344;-63
2023/05/28 03:39:34;;;;;;;11.63;6.15;;;11.40;99.90;;;;;;5092054;28;20052;-66
2023/05/28 03:42:01;;;;;;;18.70;6.20;;;11.20;99.90;;;;;;5092247;28;20048;-64
2023/05/28 03:44:27;;;;;;;12.98;6.20;;;11.30;99.90;;;;;;5075497;28;20048;-63
2023/05/28 03:46:53;;;;;;;13.52;5.95;;;11.30;99.90;;;;;;5091525;28;20483;-62
2023/05/28 03:49:23;;;;;;;13.40;6.28;;;11.30;99.90;;;;;;5091573;28;20105;-63
2023/05/28 03:51:49;;;;;;;13.55;6.13;;;11.40;99.90;;;;;;5091923;28;20052;-63
2023/05/28 03:54:15;;;;;;;13.30;5.78;;;11.30;99.90;;;;;;5092021;28;20047;-65
2023/05/28 03:56:41;;;;;;;12.45;6.03;;;11.30;99.90;;;;;;5091052;28;20341;-62
2023/05/28 03:59:08;;;;;;;13.75;6.38;;;11.40;99.90;;;;;;5092886;28;20059;-63
2023/05/28 04:01:35;;;;;;;14.40;5.60;;;11.30;99.90;;;;;;5092157;28;20176;-64
2023/05/28 04:04:02;;;;;;;15.07;6.13;;;11.30;99.90;;;;;;5092850;28;20471;-65
2023/05/28 04:06:30;;;;;;;15.27;6.25;;;11.30;99.90;;;;;;5091022;28;20533;-63
2023/05/28 04:08:57;;;;;;;13.35;6.03;;;11.40;99.90;;;;;;5071254;28;20044;-65
2023/05/28 04:11:24;;;;;;;13.35;5.65;;;11.40;99.90;;;;;;5071313;28;20048;-64
2023/05/28 04:13:51;;;;;;;16.67;6.30;;;11.30;99.90;;;;;;5071810;28;20173;-63
2023/05/28 04:16:19;;;;;;;13.20;6.10;;;11.40;99.90;;;;;;5087940;28;20059;-63
2023/05/28 04:18:45;;;;;;;14.30;6.50;;;11.30;99.90;;;;;;5084864;28;20044;-64
2023/05/28 04:21:12;;;;;;;11.77;5.93;;;11.40;99.90;;;;;;5091262;28;20127;-66
2023/05/28 04:23:38;;;;;;;14.65;5.95;;;11.40;99.90;;;;;;5091639;28;20109;-64
2023/05/28 04:26:06;;;;;;;16.35;6.03;;;11.50;99.90;;;;;;5090822;28;20059;-67
2023/05/28 04:28:33;;;;;;;13.43;6.28;;;11.40;99.90;;;;;;5091258;28;20048;-62
2023/05/28 04:31:03;;;;;;;16.35;5.55;;;11.50;99.90;;;;;;5091697;28;20044;-65
2023/05/28 04:33:30;;;;;;;13.50;5.90;;;11.50;99.90;;;;;;5091824;28;20112;-64
2023/05/28 04:35:58;;;;;;;11.75;5.70;;;11.60;99.90;;;;;;5090904;28;20058;-63
2023/05/28 04:38:28;;;;;;;14.38;5.78;;;11.60;99.90;;;;;;5090915;28;20056;-64
2023/05/28 04:40:55;;;;;;;17.42;6.22;;;11.70;99.90;;;;;;5091719;28;20051;-64
2023/05/28 04:43:21;;;;;;;11.48;5.32;;;11.70;99.90;;;;;;5091645;28;20083;-63
2023/05/28 04:45:48;;;;;;;19.60;5.72;;;11.80;99.90;;;;;;5090820;28;20387;-65
2023/05/28 04:48:14;;;;;;;11.95;6.10;;;11.90;99.90;;;;;;5090728;28;20047;-63
2023/05/28 04:50:41;;;;;;;17.15;5.75;;;11.90;99.90;;;;;;5091024;28;20067;-65
2023/05/28 04:53:07;;;;;;;14.27;5.82;;;12.10;99.90;;;;;;5092066;28;20048;-65
2023/05/28 04:55:34;;;;;;;12.88;5.70;;;12.60;99.90;;;;;;5090748;28;20098;-63
2023/05/28 04:58:01;;;;;;;14.93;5.88;;;13.30;99.90;;;;;;5091315;28;20348;-64
2023/05/28 05:00:28;;;;;;;16.42;6.25;;;14.00;99.90;;;;;;5090641;28;20449;-64
2023/05/28 05:02:54;;;;;;;14.13;6.03;;;14.60;99.90;;;;;;5090916;28;20530;-64
2023/05/28 05:05:20;;;;;;;14.85;5.93;;;15.30;99.90;;;;;;5090411;28;20044;-64
2023/05/28 05:07:47;;;;;;;13.60;5.68;;;15.80;99.90;;;;;;5090619;28;20430;-65
2023/05/28 05:10:13;;;;;;;14.95;5.65;;;16.20;99.90;;;;;;5090858;28;20043;-63
2023/05/28 05:12:39;;;;;;;11.60;5.50;;;16.60;99.90;;;;;;5090833;28;20044;-63
2023/05/28 05:15:07;;;;;;;12.07;5.75;;;17.00;99.90;;;;;;5090653;28;20065;-66
2023/05/28 05:17:33;;;;;;;14.35;6.03;;;17.50;99.90;;;;;;5090472;28;20067;-64
2023/05/28 05:20:01;;;;;;;14.90;5.90;;;17.80;99.90;;;;;;5091866;28;20464;-66
2023/05/28 05:22:28;;;;;;;12.60;5.78;;;18.10;99.90;;;;;;5091001;28;20444;-64
2023/05/28 05:24:54;;;;;;;11.63;5.38;;;18.30;99.90;;;;;;5073711;28;20052;-63
2023/05/28 05:27:20;;;;;;;14.80;6.30;;;18.10;99.90;;;;;;5090298;28;20052;-64
2023/05/28 05:29:46;;;;;;;13.90;5.95;;;17.90;99.90;;;;;;5090350;28;20063;-64
2023/05/28 05:32:13;;;;;;;10.95;5.10;;;17.90;99.90;;;;;;5090634;28;20044;-64
2023/05/28 05:34:39;;;;;;;9.38;5.20;;;17.80;99.90;;;;;;5090144;28;20068;-64
2023/05/28 05:37:06;;;;;;;14.35;6.15;;;17.70;99.90;;;;;;5090545;28;20485;-65
2023/05/28 05:39:32;;;;;;;13.45;6.45;;;17.30;99.90;;;;;;5090613;28;20070;-64
2023/05/28 05:41:59;;;;;;;12.60;5.57;;;16.60;99.90;;;;;;5090336;28;20051;-66
2023/05/28 05:44:26;;;;;;;13.05;5.82;;;16.20;99.90;;;;;;5090566;28;20048;-64
2023/05/28 05:46:53;;;;;;;12.80;5.75;;;16.00;99.90;;;;;;5090614;28;20419;-63
2023/05/28 05:49:19;;;;;;;12.75;5.95;;;15.90;99.90;;;;;;5090333;28;20059;-63
2023/05/28 05:51:46;;;;;;;14.75;6.22;;;15.80;99.90;;;;;;5090478;28;20051;-64
2023/05/28 05:54:12;;;;;;;12.65;6.15;;;15.70;99.90;;;;;;5074073;28;20059;-63
2023/05/28 05:56:38;;;;;;;10.02;5.32;;;15.80;99.90;;;;;;5089842;28;20044;-64
2023/05/28 05:59:05;;;;;;;13.23;5.40;;;15.80;99.90;;;;;;5091170;28;20054;-66
2023/05/28 06:01:31;;;;;;;12.40;5.97;;;15.70;99.90;;;;;;5083158;28;20059;-63
2023/05/28 06:03:58;;;;;;;13.13;5.20;;;15.70;99.90;;;;;;5080872;28;20048;-63
2023/05/28 06:06:24;;;;;;;11.32;5.32;;;15.80;99.90;;;;;;5080059;28;20494;-64
2023/05/28 06:08:50;;;;;;;16.48;6.25;;;15.90;99.90;;;;;;5079196;28;20055;-63
2023/05/28 06:11:17;;;;;;;13.23;6.00;;;16.00;99.90;;;;;;5082350;28;20048;-65
2023/05/28 06:13:43;;;;;;;12.40;5.60;;;16.10;99.90;;;;;;5081106;28;20052;-63
2023/05/28 06:16:11;;;;;;;15.65;6.03;;;16.20;99.90;;;;;;5081071;28;20053;-64
2023/05/28 06:18:37;;;;;;;13.25;6.13;;;16.10;99.90;;;;;;5086377;28;20420;-65
2023/05/28 06:21:03;;;;;;;14.27;5.60;;;16.00;99.90;;;;;;5082279;28;20055;-63
2023/05/28 06:23:29;;;;;;;13.98;6.13;;;16.00;99.90;;;;;;5081047;28;20380;-64
2023/05/28 06:25:56;;;;;;;13.82;5.78;;;16.00;99.90;;;;;;5082750;28;20045;-63
2023/05/28 06:28:22;;;;;;;13.00;5.95;;;15.90;99.90;;;;;;5085481;28;20524;-64
2023/05/28 06:30:49;;;;;;;15.32;6.10;;;16.20;99.90;;;;;;5081884;28;20465;-65
2023/05/28 06:33:15;;;;;;;14.27;5.88;;;16.40;99.90;;;;;;5066334;28;20073;-64
2023/05/28 06:35:41;;;;;;;12.95;5.30;;;16.70;99.90;;;;;;5082511;28;20048;-62
2023/05/28 06:38:08;;;;;;;14.95;6.30;;;17.00;99.90;;;;;;5085509;28;20130;-64
2023/05/28 06:40:34;;;;;;;14.27;6.07;;;17.60;99.90;;;;;;5082225;28;20059;-66
2023/05/28 06:43:01;;;;;;;11.65;5.18;;;17.90;99.90;;;;;;5084266;28;20102;-64
2023/05/28 06:45:27;;;;;;;12.70;5.80;;;18.20;99.90;;;;;;5083370;28;20448;-63
2023/05/28 06:47:53;;;;;;;11.98;5.60;;;18.60;99.90;;;;;;5085345;28;20047;-63
2023/05/28 06:50:20;;;;;;;16.70;6.43;;;19.00;99.90;;;;;;5082108;28;20063;-66
2023/05/28 06:52:46;;;;;;;15.00;5.60;;;19.20;99.90;;;;;;5082286;28;20040;-65
2023/05/28 06:55:12;;;;;;;13.93;5.40;;;19.00;99.90;;;;;;5082799;28;20040;-66
2023/05/28 06:57:39;;;;;;;12.05;5.70;;;18.50;99.90;;;;;;5083250;28;20059;-63
2023/05/28 07:00:13;;;;;;;14.18;6.07;;;18.40;99.90;;;;;;5082915;28;20384;-65
2023/05/28 07:02:39;;;;;;;11.57;5.47;;;18.30;99.90;;;;;;5079968;28;20517;-63
2023/05/28 07:05:07;;;;;;;13.77;6.15;;;18.10;99.90;;;;;;5074896;28;20510;-64
2023/05/28 07:07:33;;;;;;;12.63;5.45;;;18.00;99.90;;;;;;5076104;28;20085;-63
2023/05/28 07:09:59;;;;;;;11.55;5.43;;;18.10;99.90;;;;;;5076191;28;20070;-65
2023/05/28 07:12:25;;;;;;;11.80;5.35;;;18.30;99.90;;;;;;5076471;28;20059;-63
2023/05/28 07:14:52;;;;;;;12.57;5.20;;;18.60;99.90;;;;;;5092824;28;20048;-63
2023/05/28 07:17:20;;;;;;;12.13;5.07;;;18.50;99.90;;;;;;5076249;28;20109;-66
2023/05/28 07:19:47;;;;;;;15.40;5.97;;;18.60;99.90;;;;;;5094065;28;20043;-63
2023/05/28 07:22:14;;;;;;;13.50;5.32;;;18.80;99.90;;;;;;5093271;28;20044;-65
2023/05/28 07:24:40;;;;;;;12.70;5.40;;;18.70;99.90;;;;;;5093365;28;20052;-64
2023/05/28 07:27:06;;;;;;;11.43;5.32;;;18.80;99.90;;;;;;5093806;28;20044;-64
2023/05/28 07:29:33;;;;;;;11.48;4.93;;;18.90;99.90;;;;;;5091432;28;20048;-63
2023/05/28 07:31:59;;;;;;;9.38;4.68;;;19.00;99.90;;;;;;5093591;28;20058;-64
2023/05/28 07:34:25;;;;;;;10.43;4.68;;;19.10;99.90;;;;;;5093010;28;20422;-64
2023/05/28 07:36:51;;;;;;;13.23;5.47;;;19.10;99.90;;;;;;5092848;28;20044;-64
2023/05/28 07:39:18;;;;;;;10.77;4.82;;;19.20;99.90;;;;;;5093981;28;20082;-65
2023/05/28 07:41:44;;;;;;;13.00;4.80;;;19.30;99.90;;;;;;5094538;28;20044;-64
2023/05/28 07:44:11;;;;;;;12.30;5.57;;;19.20;99.90;;;;;;5093591;28;20056;-65
2023/05/28 07:46:37;;;;;;;10.93;5.07;;;19.20;99.90;;;;;;5091294;28;20109;-66
2023/05/28 07:49:03;;;;;;;10.55;4.65;;;19.40;99.90;;;;;;5087409;28;20426;-64
2023/05/28 07:51:31;;;;;;;11.45;4.40;;;19.40;99.90;;;;;;5093276;28;20098;-64
2023/05/28 07:53:57;;;;;;;9.13;4.88;;;19.50;99.90;;;;;;5093495;28;20055;-65
2023/05/28 07:56:24;;;;;;;11.65;4.85;;;19.50;99.90;;;;;;5092543;28;20752;-66
2023/05/28 07:58:51;;;;;;;11.30;5.10;;;19.50;99.90;;;;;;5092986;28;20044;-64
2023/05/28 08:01:17;;;;;;;12.85;5.30;;;19.60;99.90;;;;;;5092348;28;20117;-65
2023/05/28 08:03:43;;;;;;;13.10;5.20;;;19.70;99.90;;;;;;5092325;28;20522;-64
2023/05/28 08:06:10;;;;;;;12.27;5.40;;;19.70;99.90;;;;;;5075134;28;20448;-64
2023/05/28 08:08:36;;;;;;;16.23;6.32;;;19.70;99.90;;;;;;5093396;28;20048;-65
2023/05/28 08:11:03;;;;;;;12.32;5.45;;;19.60;99.90;;;;;;5092290;28;20428;-65
2023/05/28 08:13:29;;;;;;;13.05;6.70;;;19.70;99.90;;;;;;5092400;28;20075;-66
2023/05/28 08:15:59;;;;;;;12.23;4.68;;;19.70;99.90;;;;;;5075578;28;20529;-66
2023/05/28 08:18:25;;;;;;;12.10;5.13;;;19.70;99.90;;;;;;5092169;28;20044;-65
2023/05/28 08:20:52;;;;;;;11.00;5.50;;;19.80;99.90;;;;;;5075528;28;20066;-64
2023/05/28 08:23:18;;;;;;;10.75;5.50;;;19.80;99.90;;;;;;5092239;28;20396;-65
2023/05/28 08:25:45;;;;;;;13.73;5.63;;;20.00;99.90;;;;;;5092450;28;20048;-64
2023/05/28 08:28:11;;;;;;;11.23;5.20;;;20.00;99.90;;;;;;5067496;28;20048;-64
2023/05/28 08:30:37;;;;;;;11.45;5.40;;;19.90;99.90;;;;;;5075828;28;20049;-65
2023/05/28 08:33:03;;;;;;;11.15;5.38;;;20.10;99.90;;;;;;5069021;28;20361;-66
2023/05/28 08:35:30;;;;;;;9.45;5.63;;;20.20;99.90;;;;;;5082186;28;20089;-64
2023/05/28 08:37:56;;;;;;;12.80;5.75;;;20.10;99.90;;;;;;5081572;28;20036;-65
2023/05/28 08:40:23;;;;;;;12.07;5.85;;;20.20;99.90;;;;;;5084810;28;20044;-65
2023/05/28 08:42:49;;;;;;;11.20;5.80;;;20.20;99.90;;;;;;5084927;28;20131;-65
2023/05/28 08:45:16;;;;;;;12.77;5.82;;;20.10;99.90;;;;;;5083339;28;20055;-65
2023/05/28 08:47:43;;;;;;;11.93;5.53;;;20.20;99.90;;;;;;5081965;28;20055;-65
2023/05/28 08:50:13;;;;;;;11.00;5.57;;;20.20;99.90;;;;;;5080176;28;20116;-65
2023/05/28 08:52:40;;;;;;;10.68;5.50;;;20.10;99.90;;;;;;5081758;28;20375;-64
2023/05/28 08:55:07;;;;;;;8.90;4.78;;;20.10;99.90;;;;;;5069866;28;20055;-65
2023/05/28 08:57:38;;;;;;;11.20;5.75;;;20.10;99.90;;;;;;5081329;28;20128;-65
2023/05/28 09:00:08;;;;;;;11.15;5.70;;;20.10;99.90;;;;;;5080078;28;20055;-65
2023/05/28 09:02:34;;;;;;;13.90;5.78;;;20.10;99.90;;;;;;5082572;28;20067;-64
2023/05/28 09:05:01;;;;;;;12.60;6.15;;;20.00;99.90;;;;;;5080061;28;20060;-64
2023/05/28 09:07:27;;;;;;;12.95;5.57;;;20.00;99.90;;;;;;5080925;28;20462;-65
2023/05/28 09:09:55;;;;;;;10.07;5.53;;;20.00;99.90;;;;;;5079657;28;20368;-64
2023/05/28 09:12:22;;;;;;;13.93;6.03;;;20.20;99.90;;;;;;5079509;28;20039;-64
2023/05/28 09:14:52;;;;;;;9.93;4.82;;;20.30;99.90;;;;;;5072852;28;20098;-65
2023/05/28 09:17:39;;;;;;;12.15;5.97;;;20.30;99.90;;;;;;5072391;28;20102;-65
2023/05/28 09:20:14;;;;;;;12.95;5.95;;;20.40;99.90;;;;;;5071718;28;20044;-65
2023/05/28 09:22:41;;;;;;;12.63;6.30;;;20.40;99.90;;;;;;5078759;28;20139;-63
2023/05/28 09:25:08;;;;;;;13.23;5.97;;;20.50;99.90;;;;;;5079461;28;20059;-66
2023/05/28 09:27:37;;;;;;;8.75;5.00;;;20.60;99.90;;;;;;5085180;28;20529;-65
2023/05/28 09:30:07;;;;;;;13.13;5.28;;;20.80;99.90;;;;;;5091339;28;20479;-65
2023/05/28 09:32:35;;;;;;;14.25;5.80;;;20.80;99.70;;;;;;5082201;28;20083;-64
2023/05/28 09:35:04;;;;;;;12.82;6.20;;;20.90;99.80;;;;;;5080078;28;20105;-64
2023/05/28 09:37:30;;;;;;;14.15;5.20;;;21.00;99.50;;;;;;5079958;28;20069;-65
2023/05/28 09:40:04;;;;;;;11.43;5.53;;;21.00;99.70;;;;;;5079417;28;20678;-64
2023/05/28 09:42:39;;;;;;;13.35;5.38;;;21.20;99.60;;;;;;5080096;28;20349;-64
2023/05/28 09:45:06;;;;;;;12.18;5.93;;;21.30;99.50;;;;;;5080587;28;20483;-64
2023/05/28 09:47:32;;;;;;;13.60;5.85;;;21.30;99.00;;;;;;5080517;28;20063;-63
2023/05/28 09:50:01;;;;;;;11.15;5.78;;;21.40;99.30;;;;;;5082415;28;20045;-63
2023/05/28 09:52:28;;;;;;;10.63;5.28;;;21.40;99.10;;;;;;5080911;28;20471;-63
2023/05/28 09:54:55;;;;;;;13.88;5.75;;;21.40;99.20;;;;;;5085354;28;20048;-63
2023/05/28 09:57:29;;;;;;;10.75;5.18;;;21.60;99.20;;;;;;5083091;28;20127;-63
2023/05/28 09:59:56;;;;;;;11.52;5.40;;;21.60;98.50;;;;;;5086701;28;20098;-63
2023/05/28 10:02:32;;;;;;;12.27;5.68;;;21.50;98.40;;;;;;5085328;28;20040;-64
2023/05/28 10:05:02;;;;;;;12.50;5.28;;;21.40;98.40;;;;;;5084875;28;20447;-64
2023/05/28 10:07:29;;;;;;;10.13;4.63;;;21.30;98.80;;;;;;5083780;28;20048;-64
2023/05/28 10:09:59;;;;;;;11.88;5.13;;;21.30;99.20;;;;;;5084970;28;20133;-64
2023/05/28 10:12:30;;;;;;;12.70;5.28;;;21.50;99.10;;;;;;5086011;28;20048;-64
2023/05/28 10:14:57;;;;;;;12.73;5.22;;;21.30;98.50;;;;;;5083201;28;20306;-64
2023/05/28 10:17:24;;;;;;;10.93;5.28;;;21.50;98.70;;;;;;5083794;28;20051;-64
2023/05/28 10:19:51;;;;;;;11.70;5.20;;;21.40;98.40;;;;;;5085334;28;20056;-64
2023/05/28 10:22:18;;;;;;;11.30;5.15;;;21.50;98.40;;;;;;5084315;28;20346;-63
2023/05/28 10:24:45;;;;;;;10.02;4.75;;;21.50;98.10;;;;;;5083648;28;20049;-63
2023/05/28 10:27:15;;;;;;;9.70;4.60;;;21.60;98.30;;;;;;5083218;28;20048;-64
2023/05/28 10:29:43;;;;;;;12.20;5.60;;;21.80;98.30;;;;;;5085593;28;20052;-63
2023/05/28 10:32:13;;;;;;;9.68;4.90;;;21.80;98.20;;;;;;5083922;28;20040;-63
2023/05/28 10:34:39;;;;;;;9.13;5.15;;;21.80;98.10;;;;;;5083759;28;20067;-62
2023/05/28 10:37:07;;;;;;;11.35;5.47;;;21.90;98.10;;;;;;5081856;28;20044;-62
2023/05/28 10:39:45;;;;;;;8.82;5.40;;;22.00;98.00;;;;;;5086451;28;20040;-64
2023/05/28 10:42:16;;;;;;;12.88;5.18;;;21.90;97.50;;;;;;5081938;28;20429;-63
2023/05/28 10:45:10;;;;;;;11.60;5.15;;;22.00;97.20;;;;;;5083146;28;20105;-63
2023/05/28 10:47:38;;;;;;;11.80;5.45;;;21.80;96.90;;;;;;5087389;28;20044;-62
2023/05/28 10:50:12;;;;;;;12.10;5.10;;;22.00;97.20;;;;;;5087545;28;20101;-63
2023/05/28 10:52:38;;;;;;;8.50;4.85;;;22.20;97.10;;;;;;5094305;28;20372;-65
2023/05/28 10:55:11;;;;;;;10.20;4.97;;;22.40;97.00;;;;;;5092056;28;20051;-62
2023/05/28 10:57:45;;;;;;;10.05;5.65;;;22.40;96.10;;;;;;5084700;28;20048;-63
2023/05/28 11:00:13;;;;;;;7.45;4.80;;;22.30;95.70;;;;;;5083898;28;20044;-63
2023/05/28 11:02:43;;;;;;;8.50;4.80;;;22.40;95.00;;;;;;5081592;28;20044;-63
2023/05/28 11:05:10;;;;;;;8.65;5.18;;;22.40;94.70;;;;;;5080406;28;20347;-63
2023/05/28 11:07:42;;;;;;;8.80;5.20;;;22.40;93.80;;;;;;5084779;28;20108;-64
2023/05/28 11:10:09;;;;;;;;;;;22.30;93.70;;;;;;5084033;28;20063;-63
2023/05/28 11:12:38;;;;;;;7.55;4.57;;;22.30;93.80;;;;;;5081524;28;19920;-63
2023/05/28 11:15:06;;;;;;;7.40;5.20;;;22.50;94.00;;;;;;5083350;28;20036;-63
2023/05/28 11:17:39;;;;;;;7.57;4.88;;;22.60;93.50;;;;;;5082801;28;20360;-63
2023/05/28 11:20:18;;;;;;;10.52;5.18;;;22.60;93.30;;;;;;5081492;28;20426;-63
2023/05/28 11:22:44;;;;;;;9.23;5.00;;;22.60;92.80;;;;;;5072453;28;20044;-62
2023/05/28 11:25:12;;;;;;;10.27;5.07;;;22.60;93.00;;;;;;5072996;28;20338;-64
2023/05/28 11:27:40;;;;;;;10.00;4.50;;;22.60;92.90;;;;;;5073078;28;20057;-63
2023/05/28 11:30:11;;;;;;;7.95;4.22;;;22.60;93.30;;;;;;5070887;28;20049;-63
2023/05/28 11:32:38;;;;;;;;;;;22.70;93.20;;;;;;5092280;28;20357;-64
2023/05/28 11:35:04;;;;;;;9.98;4.97;;;22.90;92.30;;;;;;5093151;28;19924;-63
2023/05/28 11:37:34;;;;;;;8.13;4.57;;;23.00;93.10;;;;;;5090011;28;20423;-63
2023/05/28 11:40:05;;;;;;;8.23;4.50;;;23.00;92.70;;;;;;5093467;28;20044;-64
2023/05/28 11:42:31;;;;;;;7.72;4.03;;;23.10;91.80;;;;;;5081304;28;20433;-63
2023/05/28 11:44:58;;;;;;;8.77;4.30;;;23.10;91.60;;;;;;5091989;28;20052;-63
2023/05/28 11:47:26;;;;;;;6.78;4.07;;;23.00;91.20;;;;;;5093378;28;20047;-64
2023/05/28 11:49:52;;;;;;;7.05;4.57;;;23.00;91.10;;;;;;5091839;28;20138;-63
2023/05/28 11:52:21;;;;;;;8.40;4.22;;;22.90;91.10;;;;;;5091989;28;20422;-63
2023/05/28 11:54:53;;;;;;;7.20;4.38;;;23.10;91.30;;;;;;5084013;28;20048;-63
2023/05/28 11:57:25;;;;;;;9.13;4.93;;;23.20;91.10;;;;;;5082749;28;20482;-63
2023/05/28 12:00:15;;;;;;;9.05;4.28;;;23.20;90.40;;;;;;5081000;28;20054;-64
2023/05/28 12:02:45;;;;;;;6.68;4.30;;;23.10;90.20;;;;;;5081679;28;20091;-63
2023/05/28 12:05:12;;;;;;;9.93;5.10;;;23.10;90.10;;;;;;5080468;28;20085;-62
2023/05/28 12:07:47;;;;;;;7.20;4.28;;;23.10;89.80;;;;;;5083530;28;20084;-63
2023/05/28 12:10:16;;;;;;;7.00;4.85;;;23.20;89.00;;;;;;5083187;28;20048;-63
2023/05/28 12:12:45;;;;;;;6.43;4.18;;;23.20;89.20;;;;;;5081570;28;20090;-63
2023/05/28 12:15:12;;;;;;;7.28;4.43;;;23.30;89.10;;;;;;5080159;28;20464;-64
2023/05/28 12:17:41;;;;;;;6.25;4.30;;;23.40;86.80;;;;;;5082118;28;20401;-63
2023/05/28 12:20:13;;;;;;;4.97;3.95;;;23.40;86.10;;;;;;5088822;28;20399;-63
2023/05/28 12:22:39;;;;;;;7.13;4.05;;;23.30;85.20;;;;;;5092589;28;20387;-63
2023/05/28 12:25:07;;;;;;;6.57;4.22;;;23.10;84.30;;;;;;5092395;28;20055;-62
2023/05/28 12:27:34;;;;;;;6.07;4.43;;;23.10;85.10;;;;;;5092008;28;20102;-64
2023/05/28 12:30:00;;;;;;;5.55;3.90;;;23.30;84.20;;;;;;5092431;28;20105;-64
2023/05/28 12:32:26;;;;;;;7.50;4.15;;;23.30;83.60;;;;;;5093199;28;20366;-64
2023/05/28 12:34:58;;;;;;;6.82;4.15;;;23.40;82.10;;;;;;5092437;28;20044;-62
2023/05/28 12:37:24;;;;;;;5.88;3.72;;;23.20;81.40;;;;;;5092656;28;20062;-63
2023/05/28 12:39:51;;;;;;;7.88;4.95;;;22.90;81.50;;;;;;5092288;28;20055;-63